Terminal Aerodrome Forecast
Issued by NWS St Louis, MO

Home | Current Version | Previous Version | Text Only | Print | Product List | Glossary On
Versions: 1 2 3 4 5 6 7 8 9 10 11 12 13 14 15 16 17 18 19 20 21 22 23 24 25 26 27 28 29
622
FTUS43 KLSX 131439 AAA
TAFSTL
TAF AMD
KSTL 131439Z 1315/1418 06008KT 5SM -FZRAPL BR OVC025
      TEMPO 1315/1316 6SM BR SCT025 OVC070
     FM131800 07007KT 5SM -FZRA BR OVC015
     FM132300 07007KT 2SM -FZRA BR OVC010
     FM141000 06005KT 5SM -FZRA BR OVC008
     FM141400 04004KT P6SM OVC003=

USA.gov is the U.S. government's official web portal to all federal, state and local government web resources and services.